createdAt,value
2022-09-28T06:19:56.490Z,68.27
2022-09-28T06:22:34.377Z,68.13
2022-09-28T06:25:11.295Z,68.48
2022-09-28T06:27:44.794Z,68.79
2022-09-28T06:30:17.804Z,68.80
2022-09-28T06:32:52.294Z,68.84
2022-09-28T06:35:26.256Z,68.66
2022-09-28T06:37:59.918Z,68.58
2022-09-28T06:40:33.187Z,68.40
2022-09-28T06:43:10.643Z,68.28
2022-09-28T06:46:05.074Z,68.14
2022-09-28T06:48:50.085Z,67.85
2022-09-28T06:51:25.993Z,67.76
2022-09-28T06:54:06.500Z,67.63
2022-09-28T06:56:43.955Z,67.51
2022-09-28T06:59:17.243Z,67.51
2022-09-28T07:01:51.097Z,67.47
2022-09-28T07:04:28.729Z,67.37
2022-09-28T07:07:19.387Z,67.14
2022-09-28T07:09:56.777Z,67.05
2022-09-28T07:12:49.495Z,67.38
2022-09-28T07:15:30.327Z,67.31
2022-09-28T07:18:05.473Z,67.47
2022-09-28T07:20:51.330Z,67.50
2022-09-28T07:23:18.905Z,67.29
2022-09-28T07:25:50.352Z,66.98
2022-09-28T07:28:38.544Z,66.91
2022-09-28T07:31:22.336Z,66.71
2022-09-28T07:33:56.899Z,66.92
2022-09-28T07:36:39.288Z,67.06
2022-09-28T07:39:12.568Z,67.16
2022-09-28T07:41:45.780Z,67.03
2022-09-28T07:44:22.847Z,66.99
2022-09-28T07:46:57.785Z,66.76
2022-09-28T07:49:34.038Z,66.64
2022-09-28T07:52:26.346Z,65.69
2022-09-28T07:55:19.237Z,65.71
2022-09-28T07:58:03.113Z,66.06
2022-09-28T08:00:38.539Z,66.06
2022-09-28T08:03:11.477Z,66.00
2022-09-28T08:05:46.281Z,66.32
2022-09-28T08:08:20.463Z,66.35
2022-09-28T08:13:31.903Z,66.48
2022-09-28T08:16:16.029Z,66.22
2022-09-28T08:18:59.570Z,65.92
2022-09-28T08:21:47.513Z,65.46
2022-09-28T08:24:21.063Z,65.24
2022-09-28T08:26:55.760Z,65.08
2022-09-28T08:29:32.095Z,64.97
2022-09-28T08:32:10.650Z,64.69
2022-09-28T08:34:55.631Z,64.53
2022-09-28T08:37:39.215Z,64.54
2022-09-28T08:40:31.335Z,64.44
2022-09-28T08:43:08.605Z,64.27
2022-09-28T08:45:55.544Z,64.19
2022-09-28T08:48:56.368Z,63.98
2022-09-28T08:51:27.543Z,63.80
2022-09-28T08:54:23.654Z,63.78
2022-09-28T08:57:04.906Z,64.03
2022-09-28T08:59:42.168Z,64.22
2022-09-28T09:02:26.234Z,63.86
2022-09-28T09:05:06.448Z,64.13
2022-09-28T09:10:51.473Z,64.37
2022-09-28T09:13:51.876Z,64.37
2022-09-28T09:16:33.288Z,64.40
2022-09-28T09:19:13.241Z,64.30
2022-09-28T09:21:52.958Z,64.23
2022-09-28T09:24:29.196Z,64.13
2022-09-28T09:27:11.787Z,64.16
2022-09-28T09:29:57.446Z,64.08
2022-09-28T09:32:40.584Z,63.85
2022-09-28T09:35:56.420Z,63.72
2022-09-28T09:38:45.403Z,63.52
2022-09-28T09:41:47.743Z,63.29
2022-09-28T09:44:54.319Z,63.37
2022-09-28T09:50:15.612Z,63.24
2022-09-28T09:52:54.634Z,62.86
2022-09-28T09:55:36.022Z,62.71
2022-09-28T09:58:31.063Z,62.62
2022-09-28T10:01:17.270Z,62.72
2022-09-28T10:04:02.342Z,62.84
2022-09-28T10:06:38.595Z,63.05
2022-09-28T10:09:17.162Z,63.27
2022-09-28T10:11:52.194Z,63.15
2022-09-28T10:14:27.217Z,62.96
2022-09-28T10:17:08.364Z,62.88
2022-09-28T10:19:59.041Z,62.98
2022-09-28T10:22:51.301Z,63.16
2022-09-28T10:25:24.723Z,63.48
2022-09-28T10:27:59.584Z,63.57
2022-09-28T10:30:35.315Z,63.59
2022-09-28T10:33:11.399Z,63.41
2022-09-28T10:35:46.834Z,63.38
2022-09-28T10:38:22.437Z,63.79
2022-09-28T10:40:59.366Z,63.87
2022-09-28T10:43:58.184Z,63.62
2022-09-28T10:46:31.279Z,63.70
2022-09-28T10:49:07.006Z,63.97
2022-09-28T10:51:45.175Z,64.25
2022-09-28T10:54:21.974Z,64.39
2022-09-28T10:56:57.625Z,64.41
2022-09-28T10:59:43.039Z,64.43
2022-09-28T11:02:33.505Z,64.53
2022-09-28T11:05:08.612Z,64.82
2022-09-28T11:07:49.434Z,65.17
2022-09-28T11:10:26.344Z,65.40
2022-09-28T11:13:13.278Z,65.66
2022-09-28T11:15:53.440Z,65.70
2022-09-28T11:18:32.558Z,65.64
2022-09-28T11:21:17.490Z,65.74
2022-09-28T11:24:09.650Z,65.77
2022-09-28T11:26:46.953Z,66.01
2022-09-28T11:29:36.131Z,66.20
2022-09-28T11:32:29.898Z,66.41
2022-09-28T11:35:22.822Z,66.57
2022-09-28T11:38:31.426Z,66.90
2022-09-28T11:41:21.256Z,67.16
2022-09-28T11:44:34.463Z,67.12
2022-09-28T11:47:22.418Z,67.11
2022-09-28T11:49:59.109Z,66.86
2022-09-28T11:52:35.577Z,66.71
2022-09-28T11:55:13.379Z,66.44
2022-09-28T11:57:52.290Z,66.23
2022-09-28T12:00:25.864Z,66.08
2022-09-28T12:05:47.716Z,66.10
2022-09-28T12:08:27.533Z,65.88
2022-09-28T12:11:15.645Z,65.60
2022-09-28T12:14:09.040Z,65.37
2022-09-28T12:17:04.678Z,65.23
2022-09-28T12:19:22.658Z,65.00
2022-09-28T12:21:58.771Z,64.63
2022-09-28T12:24:36.572Z,64.47
2022-09-28T12:27:14.606Z,64.25
2022-09-28T12:29:51.313Z,63.89
2022-09-28T12:32:29.512Z,63.83
2022-09-28T12:35:02.947Z,63.84
2022-09-28T12:37:42.888Z,64.17
2022-09-28T12:43:54.789Z,64.72
2022-09-28T12:46:38.667Z,64.69
2022-09-28T12:50:27.247Z,64.79
2022-09-28T12:52:10.797Z,64.94
2022-09-28T12:54:58.070Z,65.04
2022-09-28T12:57:41.123Z,65.13
2022-09-28T13:00:17.354Z,65.10
2022-09-28T13:03:08.446Z,65.07
2022-09-28T13:09:31.423Z,65.04
2022-09-28T13:12:14.367Z,65.19
2022-09-28T13:15:27.582Z,65.22
2022-09-28T13:20:51.641Z,65.91
2022-09-28T13:23:28.049Z,66.02
2022-09-28T13:26:04.589Z,66.17
2022-09-28T13:28:41.947Z,66.22
2022-09-28T13:31:16.711Z,66.14
2022-09-28T13:33:51.226Z,66.11
2022-09-28T13:36:47.840Z,66.17
2022-09-28T13:39:38.681Z,66.24
2022-09-28T13:42:13.660Z,66.40
2022-09-28T13:48:08.815Z,66.56
2022-09-28T13:51:17.352Z,66.64
2022-09-28T13:57:14.316Z,66.74
2022-09-28T13:59:53.958Z,66.69
2022-09-28T14:02:32.770Z,66.84
2022-09-28T14:05:10.261Z,67.09
2022-09-28T14:08:01.926Z,67.28
2022-09-28T14:11:22.809Z,67.31
2022-09-28T14:14:03.557Z,67.49
2022-09-28T14:16:40.148Z,67.44
2022-09-28T14:19:16.012Z,67.41
2022-09-28T14:22:06.843Z,67.43
2022-09-28T14:24:59.317Z,67.42
2022-09-28T14:31:32.279Z,67.65
2022-09-28T14:34:07.631Z,67.70
2022-09-28T14:37:01.102Z,67.67
2022-09-28T14:39:57.151Z,67.76
2022-09-28T14:42:30.546Z,67.71
2022-09-28T14:45:29.800Z,67.88
2022-09-28T14:48:23.111Z,67.88
2022-09-28T14:50:57.390Z,67.97
2022-09-28T14:53:33.317Z,68.19
2022-09-28T14:56:09.306Z,68.39
2022-09-28T14:58:43.583Z,68.47
2022-09-28T15:01:20.281Z,68.46
2022-09-28T15:03:56.634Z,68.44
2022-09-28T15:06:30.909Z,68.48
2022-09-28T15:09:06.096Z,68.53
2022-09-28T15:11:43.161Z,68.64
2022-09-28T15:14:16.829Z,68.69
2022-09-28T15:16:50.149Z,68.67
2022-09-28T15:22:16.888Z,68.77
2022-09-28T15:25:02.047Z,68.68
2022-09-28T15:27:38.418Z,68.89
2022-09-28T15:33:45.013Z,68.96
2022-09-28T15:36:21.991Z,68.76
2022-09-28T15:39:01.998Z,68.83
2022-09-28T15:41:35.921Z,68.92
2022-09-28T15:44:29.765Z,68.99
2022-09-28T15:47:13.719Z,68.98
2022-09-28T15:49:50.830Z,69.18
2022-09-28T15:52:38.485Z,69.27
2022-09-28T15:55:23.201Z,69.40
2022-09-28T15:58:18.461Z,69.39
2022-09-28T16:00:54.720Z,69.28
2022-09-28T16:03:31.328Z,69.21
2022-09-28T16:06:12.138Z,69.17
2022-09-28T16:08:48.363Z,69.30
2022-09-28T16:11:26.484Z,69.42
2022-09-28T16:14:08.568Z,69.60
2022-09-28T16:16:47.030Z,69.71
2022-09-28T16:22:07.556Z,69.86
2022-09-28T16:24:41.932Z,69.88
2022-09-28T16:27:28.811Z,69.82
2022-09-28T16:30:19.070Z,69.83
2022-09-28T16:32:58.334Z,69.82
2022-09-28T16:35:33.524Z,69.78
2022-09-28T16:38:12.866Z,69.91
2022-09-28T16:40:48.226Z,69.92
2022-09-28T16:43:26.817Z,69.83
2022-09-28T16:46:02.707Z,69.83
2022-09-28T16:48:39.686Z,69.83
2022-09-28T16:51:12.908Z,69.97
2022-09-28T16:54:05.820Z,70.08
2022-09-28T16:56:42.994Z,70.10
2022-09-28T16:59:30.946Z,70.22
2022-09-28T17:02:14.758Z,70.45
2022-09-28T17:04:47.826Z,70.50
2022-09-28T17:07:22.270Z,70.63
2022-09-28T17:09:56.336Z,70.58
2022-09-28T17:12:34.299Z,70.67
2022-09-28T17:15:06.472Z,70.79
2022-09-28T17:17:39.279Z,70.53
2022-09-28T17:20:22.968Z,70.66
2022-09-28T17:23:03.768Z,70.70
2022-09-28T17:25:37.595Z,70.78
2022-09-28T17:28:15.744Z,70.89
2022-09-28T17:30:50.868Z,71.10
2022-09-28T17:33:28.277Z,71.16
2022-09-28T17:36:05.224Z,71.21
2022-09-28T17:38:42.062Z,71.37
2022-09-28T17:41:20.397Z,71.45
2022-09-28T17:43:52.080Z,71.56
2022-09-28T17:46:29.927Z,71.66
2022-09-28T17:49:03.093Z,71.66
2022-09-28T17:51:38.468Z,71.43
2022-09-28T17:54:13.114Z,71.46
2022-09-28T17:56:46.313Z,71.67
2022-09-28T17:59:22.214Z,71.79
2022-09-28T18:01:57.517Z,71.88
2022-09-28T18:04:50.671Z,72.04
2022-09-28T18:07:08.423Z,72.16
2022-09-28T18:09:41.649Z,72.17
2022-09-28T18:12:14.682Z,72.24
2022-09-28T18:14:49.998Z,72.32
2022-09-28T18:17:24.518Z,72.45
2022-09-28T18:19:57.643Z,72.46
2022-09-28T18:22:30.595Z,72.54
2022-09-28T18:25:06.264Z,72.59
2022-09-28T18:27:44.207Z,72.62
2022-09-28T18:30:17.144Z,72.69
2022-09-28T18:32:50.224Z,72.61
2022-09-28T18:35:26.212Z,72.56
2022-09-28T18:37:59.179Z,72.57
2022-09-28T18:40:33.009Z,72.59
2022-09-28T18:43:07.717Z,72.58
2022-09-28T18:45:42.333Z,72.58
2022-09-28T18:48:15.115Z,72.56
2022-09-28T18:50:48.159Z,72.57
2022-09-28T18:53:23.858Z,72.50
2022-09-28T18:55:58.939Z,72.48
2022-09-28T18:58:33.334Z,72.64
2022-09-28T19:01:31.520Z,72.74
2022-09-28T19:03:46.898Z,72.82
2022-09-28T19:06:20.105Z,72.94
2022-09-28T19:08:56.369Z,73.06
2022-09-28T19:11:29.806Z,73.15
2022-09-28T19:14:03.829Z,73.25
2022-09-28T19:16:41.956Z,73.32
2022-09-28T19:19:16.663Z,73.43
2022-09-28T19:21:50.325Z,73.54
2022-09-28T19:24:23.474Z,73.68
2022-09-28T19:26:56.737Z,73.79
2022-09-28T19:29:29.920Z,73.89
2022-09-28T19:32:03.119Z,73.97
2022-09-28T19:34:36.105Z,74.08
2022-09-28T19:37:10.953Z,74.14
2022-09-28T19:39:46.127Z,74.21
2022-09-28T19:42:19.142Z,74.28
2022-09-28T19:44:52.522Z,74.25
2022-09-28T19:47:25.693Z,74.29
2022-09-28T19:49:58.613Z,74.32
2022-09-28T19:52:31.762Z,74.38
2022-09-28T19:55:04.894Z,74.37
2022-09-28T19:57:37.853Z,74.41
2022-09-28T20:00:13.507Z,74.45
2022-09-28T20:02:46.509Z,74.47
2022-09-28T20:05:19.519Z,74.47
2022-09-28T20:07:52.469Z,74.55
2022-09-28T20:10:25.365Z,74.57
2022-09-28T20:12:59.104Z,74.58
2022-09-28T20:15:32.199Z,74.58
2022-09-28T20:18:05.328Z,74.68
2022-09-28T20:20:38.265Z,74.75
2022-09-28T20:23:11.802Z,74.73
2022-09-28T20:25:44.735Z,74.69
2022-09-28T20:28:17.723Z,74.69
2022-09-28T20:30:50.636Z,74.70
2022-09-28T20:33:28.924Z,74.72
2022-09-28T20:35:59.460Z,74.78
2022-09-28T20:38:32.495Z,74.73
2022-09-28T20:41:06.231Z,74.76
2022-09-28T20:43:40.525Z,74.84
2022-09-28T20:46:14.636Z,74.98
2022-09-28T20:48:49.479Z,75.08
2022-09-28T20:51:23.333Z,75.15
2022-09-28T20:53:57.712Z,75.15
2022-09-28T20:56:33.812Z,75.20
2022-09-28T20:59:08.595Z,75.19
2022-09-28T21:01:42.090Z,75.19
2022-09-28T21:04:15.592Z,75.24
2022-09-28T21:06:48.911Z,75.12
2022-09-28T21:09:21.950Z,75.07
2022-09-28T21:11:55.196Z,75.03
2022-09-28T21:14:29.881Z,75.08
2022-09-28T21:17:02.736Z,75.09
2022-09-28T21:19:35.709Z,75.04
2022-09-28T21:22:08.722Z,75.02
2022-09-28T21:24:41.779Z,75.02
2022-09-28T21:27:14.742Z,74.89
2022-09-28T21:29:47.712Z,74.89
2022-09-28T21:32:24.279Z,74.95
2022-09-28T21:34:58.423Z,75.04
2022-09-28T21:37:31.348Z,75.09
2022-09-28T21:40:06.616Z,75.11
2022-09-28T21:42:40.700Z,75.11
2022-09-28T21:45:13.780Z,75.12
2022-09-28T21:47:50.093Z,75.17
2022-09-28T21:50:25.903Z,75.22
2022-09-28T21:53:06.448Z,75.29
2022-09-28T21:55:40.177Z,75.34
2022-09-28T21:58:13.130Z,75.38
2022-09-28T22:00:46.047Z,75.40
2022-09-28T22:03:18.867Z,75.42
2022-09-28T22:05:53.879Z,75.44
2022-09-28T22:08:26.918Z,75.52
2022-09-28T22:11:05.861Z,75.59
2022-09-28T22:13:41.468Z,75.66
2022-09-28T22:16:15.633Z,75.68
2022-09-28T22:18:49.138Z,75.68
2022-09-28T22:21:23.972Z,75.69
2022-09-28T22:24:01.987Z,75.74
2022-09-28T22:26:37.224Z,75.76
2022-09-28T22:29:11.485Z,75.80
2022-09-28T22:31:44.352Z,75.85
2022-09-28T22:34:17.304Z,75.93
2022-09-28T22:36:50.206Z,76.03
2022-09-28T22:39:23.014Z,76.07
2022-09-28T22:41:55.869Z,76.07
2022-09-28T22:44:28.777Z,76.07
2022-09-28T22:47:02.191Z,76.02
2022-09-28T22:49:35.310Z,75.98
2022-09-28T22:52:08.897Z,76.06
2022-09-28T22:54:41.703Z,76.04
2022-09-28T22:57:17.309Z,76.03
2022-09-28T22:59:50.129Z,75.95
2022-09-28T23:02:23.060Z,76.05
2022-09-28T23:04:55.945Z,76.02
2022-09-28T23:07:28.765Z,76.08
2022-09-28T23:10:01.591Z,76.11
2022-09-28T23:12:47.899Z,76.08
2022-09-28T23:15:31.733Z,76.05
2022-09-28T23:18:10.653Z,76.05
2022-09-28T23:20:45.011Z,76.13
2022-09-28T23:23:18.003Z,76.13
2022-09-28T23:25:51.250Z,76.14
2022-09-28T23:28:26.315Z,76.20
2022-09-28T23:31:02.103Z,76.23
2022-09-28T23:33:34.977Z,76.14
2022-09-28T23:36:09.399Z,76.12
2022-09-28T23:38:42.199Z,76.19
2022-09-28T23:41:15.065Z,76.25
2022-09-28T23:43:47.944Z,76.28
2022-09-28T23:46:21.427Z,76.25
2022-09-28T23:48:54.828Z,76.25
2022-09-28T23:51:27.728Z,76.21
2022-09-28T23:54:02.295Z,76.18
2022-09-28T23:56:35.516Z,76.15
2022-09-28T23:59:08.449Z,76.16
